KLHQ

Fairfield County Airport

Lancaster, Ohio, USA
METAR KLHQ 191853Z AUTO 19010KT 10SM CLR 14/02 A3008 RMK AO2 SLP188 T01440022
Observed Flight Rules
Oct-19 @ 18:53 UTC (58 minutes ago) Visual Flight Rules
Wind Visibility Clouds
190° at 10 knots 10 miles
  • Clear skies
Temperatures Readings
Current 14°C / 57°F
Dewpoint 2°C / 36°F
Humidity 44%
Altimeter 30.08" Hg
Pressure 1018.8 hPa
Elevation 260
METAR KLHQ 191853Z AUTO 19010KT 10SM CLR 14/02 A3008 RMK AO2 SLP188 T01440022
Observed Flight Rules
Oct-19 @ 18:53 UTC
(58 minutes ago)
VFR
Wind Visibility
190° at 10 knots 10 miles
Clouds
  • Clear skies
Temperature Dewpoint
14°C / 57°F 2°C / 36°F
Humidity Altimeter Pressure
44% 30.08" Hg 1018.8 hPa